OBSERVATIONS  0 - 24  HOURS

00-24 HOURS 24-48 HOURS 48-72 HOURS 72-96 HOURS 96-120 HOURS Navigation Menu

Date/Time
EST
temperature
°C
Dew Point
°C
Humidity
%
Wind Speed
km/h
Wind Gust
km/h
Wind
Direction
Barometer
mb
Rain Today
mm
20/10:40pm 3.7 -0.5 74 0 0 1009.5 3517.2
20/10:10pm 3.5 -0.3 76 0 0 1009.6 3517.2
20/09:40pm 3.8 0.5 79 0 0 1009.6 3517.2
20/09:10pm 3.4 -0.1 78 0 0 1009.7 3517.2
20/08:40pm 3.8 0.5 79 0 0 1010.0 3517.2
20/08:10pm 4.0 0.3 77 0 0 1010.2 3517.2
20/07:40pm 4.5 0.3 74 0 0 1010.2 3517.2
20/07:10pm 4.8 0.9 76 0 0 1010.1 3517.2
20/06:40pm 4.5 0.6 76 0 0 1010.1 3517.2
20/06:10pm 5.0 0.6 73 0 0 1010.0 3517.2
20/05:40pm 5.2 1.3 76 0 0 1010.1 3517.2
20/05:10pm 5.6 1.5 75 0 0 1010.0 3517.2
20/04:40pm 6.2 1.7 73 0 0 1010.3 3517.2
20/04:10pm 7.4 1.9 68 0 0 1010.1 3517.2
20/03:40pm 8.5 2.3 65 0 0 1010.1 3517.2
20/03:10pm 10.0 2.8 61 0 0 1010.5 3517.2
20/02:40pm 10.3 3.1 61 0 0 1010.8 3517.2
20/02:10pm 10.8 2.9 58 0 0 1011.0 3517.2
20/01:40pm 10.9 3.4 60 0 0 1011.5 3517.2
20/01:10pm 11.5 3.0 56 0 0 1011.6 3517.2
20/12:40pm 11.4 2.2 53 0 0 1011.9 3517.2
20/12:10pm 10.2 1.0 53 0 0 1012.6 3517.2
20/11:40am 9.8 -0.4 49 0 0 1012.7 3517.2
20/11:10am 8.8 -3.7 41 0 0 1013.1 3517.2
20/10:40am 6.3 -4.8 45 0 0 1013.3 3517.2
20/10:10am 6.2 -9.7 31 0 0 1013.3 3517.2
20/09:40am 4.9 -10.4 32 0 0 1013.4 3517.2
20/09:10am 4.4 -10.1 34 0 0 1013.4 3517.2
20/09:01am 4.2 -7.9 41 0 0 1013.5 3517.2
20/08:18am 0.0 -0.2 0 8 0 0.0 3517.2
20/08:18am 0.0 -0.2 0 8 0 0.0 3517.2
20/08:18am 0.0 -0.2 0 8 0 0.0 3517.2
20/08:18am 0.0 -0.2 0 8 0 0.0 3517.2
20/08:18am 0.0 -0.2 0 8 0 0.0 3517.2
20/08:18am 0.0 -0.2 0 8 0 0.0 3517.2
20/05:22am 0.0 -0.2 0 0 0 0.0 3517.2
20/05:22am 0.0 -0.2 0 0 0 0.0 3517.2
20/05:22am 0.0 -0.2 0 0 0 0.0 3517.2
20/05:22am 0.0 -0.2 0 0 0 0.0 3517.2
20/05:22am 0.0 -0.2 0 0 0 0.0 3517.2
20/05:22am 0.0 -0.2 0 0 0 0.0 3517.2
20/05:22am 0.0 -0.2 0 0 0 0.0 3517.2
20/05:22am 0.0 -0.2 0 0 0 0.0 3517.2
20/05:22am 0.0 -0.2 0 0 0 0.0 3517.2
20/05:22am 0.0 -0.2 0 0 0 0.0 3517.2
20/05:22am 0.0 -0.2 0 0 0 0.0 3517.2
20/05:22am 0.0 -0.2 0 0 0 0.0 3517.2
20/05:22am 0.0 -0.2 0 0 0 0.0 3517.2
20/05:22am 0.0 -0.2 0 0 0 0.0 3517.2
19/10:10pm 3.4 -0.2 77 0 0 1014.1 3517.2

OBSERVATIONS  24 - 48  HOURS

00-24 HOURS 24-48 HOURS 48-72 HOURS 72-96 HOURS 96-120 HOURS Navigation Menu

Date/Time
EST
temperature
°C
Dew Point
°C
Humidity
%
Wind Speed
km/h
Wind Gust
km/h
Wind
Direction
Barometer
mb
Rain Today
mm
20/05:22am 0.0 -0.2 0 0 0 0.0 3517.2
19/10:10pm 3.4 -0.2 77 0 0 1014.1 3517.2
19/09:40pm 3.9 0.2 77 0 0 1014.1 3517.2
19/09:10pm 4.2 0.7 78 0 0 1014.4 3517.2
19/08:40pm 4.6 1.5 80 0 0 1013.8 3517.2
19/08:10pm 4.9 2.1 82 0 0 1014.1 3517.2
19/07:40pm 4.7 2.1 83 0 0 1014.4 3517.2
19/07:10pm 4.6 2.0 83 0 0 1014.2 3517.2
19/06:40pm 4.6 2.1 84 0 0 1014.6 3517.2
19/06:10pm 4.7 2.2 84 0 0 1014.2 3517.2
19/05:40pm 4.6 2.0 83 0 0 1014.4 3517.2
19/05:10pm 4.8 0.9 76 0 0 1014.6 3517.2
19/04:40pm 5.2 0.0 69 0 0 1014.2 3517.2
19/04:10pm 6.8 0.5 64 0 0 1013.9 3517.2
19/03:40pm 7.6 0.6 61 0 0 1014.0 3517.2
19/03:10pm 8.9 0.4 55 0 0 1013.7 3517.2
19/03:00pm 9.0 0.2 54 0 0 1013.7 3517.2
19/03:00pm 9.0 0.2 54 0 0 1013.7 3517.2
19/02:08pm 9.6 -0.3 50 0 0 1013.1 3517.2
19/02:08pm 9.6 -0.3 50 0 0 1013.1 3517.2
19/01:08pm 8.9 -1.8 47 0 0 1013.1 3517.2
19/01:08pm 8.9 -1.8 47 0 0 1013.1 3517.2
19/11:40am 8.5 -0.3 54 0 0 1013.9 3517.2
19/11:10am 7.6 -1.1 54 0 0 1013.8 3517.2
19/10:40am 5.7 -2.4 56 0 0 1014.1 3517.2
19/10:10am 9.9 -2.1 43 0 0 1013.9 3517.2
19/09:40am 5.6 -6.0 43 0 0 1014.1 3517.2
19/09:10am 2.4 -2.5 70 0 0 1013.6 3517.2
19/08:49am 7.6 4.4 80 0 0 1011.5 3517.2
19/08:49am 7.6 4.4 80 0 0 1011.5 3517.2
19/08:49am 7.6 4.4 80 0 0 1011.5 3517.2
19/08:49am 7.6 4.4 80 0 0 1011.5 3517.2
19/08:49am 7.6 4.4 80 0 0 1011.5 3517.2
19/08:49am 7.6 4.4 80 0 0 1011.5 3517.2
19/05:53am 0.0 -0.8 0 0 0 0.0 3517.2
19/05:53am 0.0 -0.8 0 0 0 0.0 3517.2
19/05:53am 0.0 -0.8 0 0 0 0.0 3517.2
19/05:53am 0.0 -0.8 0 0 0 0.0 3517.2
19/05:53am 0.0 -0.8 0 0 0 0.0 3517.2
19/05:53am 0.0 -0.8 0 0 0 0.0 3517.2
19/05:53am 0.0 -0.8 0 0 0 0.0 3517.2
19/05:53am 0.0 -0.8 0 0 0 0.0 3517.2
19/05:53am 0.0 -0.8 0 0 0 0.0 3517.2
19/05:53am 0.0 -0.8 0 0 0 0.0 3517.2
19/05:53am 0.0 -0.8 0 0 0 0.0 3517.2
19/05:53am 0.0 -0.8 0 0 0 0.0 3517.2
19/05:53am 0.0 -0.8 0 0 0 0.0 3517.2
19/05:53am 0.0 -0.8 0 0 0 0.0 3517.2
19/05:53am 0.0 -0.8 0 0 0 0.0 3517.2
19/05:53am 0.0 -0.8 0 0 0 0.0 3517.2

OBSERVATIONS  48 - 72  HOURS

00-24 HOURS 24-48 HOURS 48-72 HOURS 72-96 HOURS 96-120 HOURS Navigation Menu

Date/Time
EST
temperature
°C
Dew Point
°C
Humidity
%
Wind Speed
km/h
Wind Gust
km/h
Wind
Direction
Barometer
mb
Rain Today
mm
19/05:53am 0.0 -0.8 0 0 0 0.0 3517.2
19/05:53am 0.0 -0.8 0 0 0 0.0 3517.2
18/09:40pm 2.5 -0.8 79 0 0 1024.4 3517.2
18/09:10pm 2.9 -0.9 76 0 0 1023.9 3517.2
18/08:40pm 3.5 -0.9 73 0 0 1023.6 3517.2
18/08:10pm 4.2 -0.6 71 0 0 1023.0 3517.2
18/07:50pm 4.6 -0.8 68 0 0 1022.5 3517.2
18/07:10pm 4.9 -0.7 67 0 0 1021.9 3517.2
18/06:40pm 5.1 -0.9 65 0 0 1021.6 3517.2
18/06:10pm 5.3 -1.0 64 0 0 1021.0 3517.2
18/05:40pm 5.4 -0.9 64 0 0 1020.5 3517.2
18/05:10pm 5.3 -1.2 63 0 0 1019.8 3517.2
18/04:40pm 5.7 -1.0 62 0 0 1019.4 3517.2
18/04:10pm 6.4 -1.3 58 0 0 1018.9 3517.2
18/03:40pm 7.6 -1.4 53 0 0 1018.2 3517.2
18/03:10pm 9.7 -1.7 45 0 0 1017.8 3517.2
18/02:40pm 10.5 -1.2 44 0 0 1017.0 3517.2
18/02:10pm 11.2 -2.2 39 0 0 1016.9 3517.2
18/01:40pm 11.2 -1.6 41 0 0 1016.6 3517.2
18/01:10pm 10.5 0.0 48 0 0 1016.4 3517.2
18/12:40pm 10.0 -1.1 46 0 0 1016.2 3517.2
18/12:10pm 9.4 0.3 53 0 0 1015.8 3517.2
18/11:40am 8.4 -0.4 54 0 0 1015.5 3517.2
18/11:10am 8.2 -0.6 54 0 0 1015.3 3517.2
18/10:40am 6.0 -0.5 63 0 0 1015.2 3517.2
18/10:10am 6.9 -1.0 57 0 0 1014.6 3517.2
18/09:40am 5.9 -1.5 59 0 0 1014.5 3517.2
18/09:10am 5.3 -2.5 57 0 0 1014.0 3517.2
18/09:10am 5.3 -2.5 57 0 0 1014.0 3517.2
18/08:34am 0.0 -0.4 0 8 0 0.0 3517.2
18/08:34am 0.0 -0.4 0 8 0 0.0 3517.2
18/08:34am 0.0 -0.4 0 8 0 0.0 3517.2
18/08:34am 0.0 -0.4 0 8 0 0.0 3517.2
18/08:34am 0.0 -0.4 0 8 0 0.0 3517.2
18/08:34am 0.0 -0.4 0 8 0 0.0 3517.2
18/05:38am 0.0 -0.4 0 0 0 0.0 0.0
18/05:38am 0.0 -0.4 0 0 0 0.0 0.0
18/05:38am 0.0 -0.4 0 0 0 0.0 0.0
18/05:38am 0.0 -0.4 0 0 0 0.0 0.0
18/05:38am 0.0 -0.4 0 0 0 0.0 0.0
18/05:38am 0.0 -0.4 0 0 0 0.0 0.0
18/05:38am 0.0 -0.4 0 0 0 0.0 0.0
18/05:38am 0.0 -0.4 0 0 0 0.0 0.0
18/05:38am 0.0 -0.4 0 0 0 0.0 0.0
18/05:38am 0.0 -0.4 0 0 0 0.0 0.0
18/05:38am 0.0 -0.4 0 0 0 0.0 0.0
18/05:38am 0.0 -0.4 0 0 0 0.0 0.0
18/05:38am 0.0 -0.4 0 0 0 0.0 0.0
18/05:38am 0.0 -0.4 0 0 0 0.0 0.0
17/10:10pm 4.6 0.0 72 0 0 1013.6 0.0

OBSERVATIONS  72 - 96  HOURS

00-24 HOURS 24-48 HOURS 48-72 HOURS 72-96 HOURS 96-120 HOURS Navigation Menu

Date/Time
EST
temperature
°C
Dew Point
°C
Humidity
%
Wind Speed
km/h
Wind Gust
km/h
Wind
Direction
Barometer
mb
Rain Today
mm
18/05:38am 0.0 -0.4 0 0 0 0.0 0.0
17/10:10pm 4.6 0.0 72 0 0 1013.6 0.0
17/09:40pm 4.9 0.1 71 0 0 1013.3 0.0
17/09:10pm 5.3 0.1 69 0 0 1012.9 0.0
17/08:40pm 5.7 0.1 67 0 0 1012.4 0.0
17/08:10pm 5.5 0.1 68 0 0 1012.3 0.0
17/07:40pm 5.2 -0.2 68 0 0 1012.0 0.0
17/07:10pm 5.4 0.0 68 0 0 1011.1 0.0
17/06:40pm 5.6 -0.2 66 0 0 1011.2 0.0
17/06:10pm 5.9 -0.4 64 0 0 1010.8 0.0
17/05:40pm 5.8 -0.5 64 0 0 1010.3 0.0
17/05:10pm 5.3 -0.5 66 0 0 1010.1 0.0
17/04:40pm 5.7 -1.2 61 0 0 1009.7 0.0
17/04:10pm 5.9 -0.8 62 0 0 1009.3 0.0
17/03:40pm 6.3 -0.4 62 0 0 1009.0 0.0
17/03:10pm 6.5 -1.4 57 0 0 1008.5 0.0
17/02:40pm 6.1 -1.1 60 0 0 1008.3 0.0
17/02:10pm 5.8 -1.1 61 0 0 1007.8 0.0
17/01:40pm 6.0 -2.6 54 0 0 1007.4 0.0
17/01:10pm 6.2 -6.4 40 0 0 1006.8 0.0
17/12:40pm 5.9 -8.8 34 0 0 1006.4 0.0
17/12:10pm 5.6 -5.4 45 0 0 1006.2 0.0
17/11:40am 5.9 -3.5 51 0 0 1005.9 0.0
17/11:10am 7.6 0.6 61 0 0 1005.2 0.0
17/10:40am 7.5 0.9 63 0 0 1005.0 0.0
17/10:10am 7.6 1.4 65 0 0 1004.7 0.0
17/09:40am 7.6 1.9 67 0 0 1004.3 0.0
17/09:10am 7.8 2.5 69 0 0 1004.4 0.0
17/08:40am 7.5 2.4 70 0 0 1004.2 0.0
17/08:10am 7.5 2.6 71 0 0 1004.0 0.0
17/07:40am 7.4 2.7 72 0 0 1004.0 0.0
17/07:10am 7.6 3.1 73 0 0 1003.7 0.0
17/06:40am 7.7 3.4 74 0 0 1003.9 0.0
17/06:10am 7.8 3.3 73 0 0 1004.2 0.0
17/05:40am 8.2 3.5 72 0 0 1003.9 0.0
17/05:10am 8.4 3.6 72 0 0 1004.2 0.0
17/04:40am 8.3 3.7 73 0 0 1004.1 0.0
17/04:10am 7.9 3.9 76 0 0 1004.5 0.0
17/03:40am 7.3 2.2 70 0 0 1004.5 0.0
17/03:10am 7.9 2.4 68 0 0 1004.5 0.0
17/02:40am 8.1 2.6 68 0 0 1004.6 0.0
17/02:10am 8.9 2.7 65 0 0 1004.7 0.0
17/01:40am 9.0 3.0 66 0 0 1004.8 0.0
17/01:10am 9.1 3.5 68 0 0 1004.7 0.0
17/12:40am 9.2 3.6 68 0 0 1004.7 0.0
17/12:10am 9.4 3.4 66 0 0 1004.6 0.0
16/11:40pm 10.2 3.5 63 0 0 1004.5 3517.2
16/11:10pm 10.6 3.2 60 0 0 1004.6 3517.2
16/10:40pm 11.3 3.6 59 0 0 1003.5 3517.2
16/10:10pm 12.0 4.2 59 0 0 1003.4 3517.2

OBSERVATIONS  96 - 120  HOURS

00-24 HOURS 24-48 HOURS 48-72 HOURS 72-96 HOURS 96-120 HOURS Navigation Menu

Date/Time
EST
temperature
°C
Dew Point
°C
Humidity
%
Wind Speed
km/h
Wind Gust
km/h
Wind
Direction
Barometer
mb
Rain Today
mm
16/10:40pm 11.3 3.6 59 0 0 1003.5 3517.2
16/10:10pm 12.0 4.2 59 0 0 1003.4 3517.2
16/09:40pm 11.8 5.0 63 0 0 1002.9 3517.2
16/09:10pm 11.9 6.2 68 0 0 1002.6 3517.2
16/08:40pm 12.1 6.2 67 0 0 1002.2 3517.2
16/08:10pm 12.0 6.3 68 0 0 1002.0 3517.2
16/07:40pm 11.9 6.4 69 0 0 1001.7 3517.2
16/07:10pm 11.2 6.1 71 0 0 1001.4 3517.2
16/06:40pm 11.1 6.0 71 0 0 1001.3 3517.2
16/06:10pm 10.9 6.5 74 0 0 1001.3 3517.2
16/05:40pm 11.1 5.6 69 0 0 1001.4 3517.2
16/05:10pm 11.0 5.1 67 0 0 1002.2 3517.2
16/04:40pm 10.9 4.6 65 0 0 1002.5 3517.2
16/04:10pm 10.1 4.5 68 0 0 1003.0 3517.2
16/03:40pm 9.6 4.0 68 0 0 1003.5 3517.2
16/03:10pm 9.5 3.7 67 0 0 1003.5 3517.2
16/02:40pm 9.2 3.4 67 0 0 1003.9 3517.2
16/02:10pm 8.5 3.1 69 0 0 1005.3 3517.2
16/01:40pm 8.3 2.7 68 0 0 1006.5 3517.2
16/01:10pm 8.0 2.2 67 0 0 1007.3 3517.2
16/12:40pm 8.1 2.1 66 0 0 1007.9 3517.2
16/12:10pm 8.3 1.7 63 0 0 1009.2 3517.2
16/11:40am 8.5 1.2 60 0 0 1010.0 3517.2
16/11:10am 8.0 0.5 59 0 0 1010.7 3517.2
16/10:40am 8.1 -0.1 56 0 0 1011.9 3517.2
16/10:10am 7.5 0.0 59 0 0 1012.5 3517.2
16/09:40am 7.0 0.4 63 0 0 1012.6 3517.2
16/09:10am 6.3 0.6 67 0 0 1012.6 3517.2
16/09:10am 6.3 0.6 67 0 0 1012.6 3517.2
16/08:32am 7.6 4.4 80 0 0 1042.4 3517.2
16/08:32am 7.6 4.4 80 0 0 1042.4 3517.2
16/08:32am 7.6 4.4 80 0 0 1042.4 3517.2
16/08:32am 7.6 4.4 80 0 0 1042.4 3517.2
16/08:32am 7.6 4.4 80 0 0 1042.4 3517.2
16/08:32am 7.6 4.4 80 0 0 1042.4 3517.2
16/05:36am 0.0 0.8 0 0 0 0.0 3517.2
16/05:36am 0.0 0.8 0 0 0 0.0 3517.2
16/05:36am 0.0 0.8 0 0 0 0.0 3517.2
16/05:36am 0.0 0.8 0 0 0 0.0 3517.2
16/05:36am 0.0 0.8 0 0 0 0.0 3517.2
16/05:36am 0.0 0.8 0 0 0 0.0 3517.2
16/05:36am 0.0 0.8 0 0 0 0.0 3517.2
16/05:36am 0.0 0.8 0 0 0 0.0 3517.2
16/05:36am 0.0 0.8 0 0 0 0.0 3517.2
16/05:36am 0.0 0.8 0 0 0 0.0 3517.2
16/05:36am 0.0 0.8 0 0 0 0.0 3517.2
16/05:36am 0.0 0.8 0 0 0 0.0 3517.2
16/05:36am 0.0 0.8 0 0 0 0.0 3517.2
16/05:36am 0.0 0.8 0 0 0 0.0 3517.2
15/10:10pm 6.5 0.8 67 0 0 1025.3 3517.2

00-24 HOURS 24-48 HOURS 48-72 HOURS 72-96 HOURS 96-120 HOURS Navigation Menu


Page updated 20/01/2020 22:40:36
powered by Cumulus v1.9.4 (1099)